createdAt,value
2023-05-02T00:00:27.044Z,95151.00
2023-05-02T00:01:27.092Z,95151.00
2023-05-02T00:02:27.258Z,95153.00
2023-05-02T00:03:27.198Z,95149.00
2023-05-02T00:04:27.223Z,95151.00
2023-05-02T00:05:27.271Z,95149.00
2023-05-02T00:06:27.335Z,95149.00
2023-05-02T00:07:27.327Z,95149.00
2023-05-02T00:08:27.456Z,95147.00
2023-05-02T00:09:27.423Z,95147.00
2023-05-02T00:10:27.490Z,95147.00
2023-05-02T00:11:27.508Z,95149.00
2023-05-02T00:12:27.568Z,95147.00
2023-05-02T00:13:27.586Z,95147.00
2023-05-02T00:14:27.656Z,95145.00
2023-05-02T00:15:27.696Z,95147.00
2023-05-02T00:16:27.749Z,95143.00
2023-05-02T00:17:27.845Z,95145.00
2023-05-02T00:18:27.818Z,95141.00
2023-05-02T00:19:27.893Z,95141.00
2023-05-02T00:20:27.930Z,95141.00
2023-05-02T00:21:27.972Z,95141.00
2023-05-02T00:22:28.015Z,95141.00
2023-05-02T00:23:28.088Z,95141.00
2023-05-02T00:24:28.149Z,95141.00
2023-05-02T00:25:28.143Z,95139.00
2023-05-02T00:26:28.221Z,95143.00
2023-05-02T00:27:28.236Z,95141.00
2023-05-02T00:28:28.303Z,95139.00
2023-05-02T00:29:28.361Z,95139.00
2023-05-02T00:30:28.419Z,95137.00
2023-05-02T00:31:28.597Z,95137.00
2023-05-02T00:32:28.585Z,95135.00
2023-05-02T00:33:28.539Z,95135.00
2023-05-02T00:34:28.597Z,95135.00
2023-05-02T00:35:28.634Z,95135.00
2023-05-02T00:36:28.692Z,95135.00
2023-05-02T00:37:28.756Z,95135.00
2023-05-02T00:38:28.775Z,95135.00
2023-05-02T00:39:28.860Z,95133.00
2023-05-02T00:40:28.891Z,95135.00
2023-05-02T00:41:28.945Z,95135.00
2023-05-02T00:42:28.955Z,95135.00
2023-05-02T00:43:29.009Z,95135.00
2023-05-02T00:44:29.050Z,95135.00
2023-05-02T00:45:29.133Z,95135.00
2023-05-02T00:46:29.353Z,95137.00
2023-05-02T00:47:29.244Z,95137.00
2023-05-02T00:48:29.261Z,95137.00
2023-05-02T00:49:29.317Z,95137.00
2023-05-02T00:50:29.341Z,95135.00
2023-05-02T00:51:29.381Z,95137.00
2023-05-02T00:52:29.500Z,95135.00
2023-05-02T00:53:29.499Z,95137.00
2023-05-02T00:54:29.562Z,95137.00
2023-05-02T00:55:29.591Z,95137.00
2023-05-02T00:56:29.618Z,95137.00
2023-05-02T00:57:29.695Z,95137.00
2023-05-02T00:58:29.738Z,95137.00
2023-05-02T00:59:29.783Z,95135.00
2023-05-02T01:00:29.818Z,95137.00
2023-05-02T01:01:29.981Z,95139.00
2023-05-02T01:02:29.968Z,95139.00
2023-05-02T01:03:30.068Z,95139.00
2023-05-02T01:04:30.038Z,95141.00
2023-05-02T01:05:30.065Z,95143.00
2023-05-02T01:06:30.225Z,95143.00
2023-05-02T01:07:30.168Z,95143.00
2023-05-02T01:08:30.214Z,95145.00
2023-05-02T01:09:30.259Z,95147.00
2023-05-02T01:10:30.295Z,95147.00
2023-05-02T01:11:30.377Z,95145.00
2023-05-02T01:12:30.423Z,95149.00
2023-05-02T01:13:30.460Z,95147.00
2023-05-02T01:14:30.521Z,95147.00
2023-05-02T01:15:30.568Z,95147.00
2023-05-02T01:16:30.667Z,95147.00
2023-05-02T01:17:30.676Z,95147.00
2023-05-02T01:18:30.680Z,95149.00
2023-05-02T01:19:30.737Z,95149.00
2023-05-02T01:20:30.754Z,95149.00
2023-05-02T01:21:30.810Z,95149.00
2023-05-02T01:22:30.898Z,95151.00
2023-05-02T01:23:30.925Z,95151.00
2023-05-02T01:24:30.969Z,95153.00
2023-05-02T01:25:31.021Z,95153.00
2023-05-02T01:26:31.059Z,95153.00
2023-05-02T01:27:31.119Z,95153.00
2023-05-02T01:28:31.196Z,95153.00
2023-05-02T01:29:31.157Z,95155.00
2023-05-02T01:30:31.226Z,95155.00
2023-05-02T01:31:31.359Z,95155.00
2023-05-02T01:32:31.339Z,95157.00
2023-05-02T01:33:31.379Z,95157.00
2023-05-02T01:34:31.384Z,95157.00
2023-05-02T01:35:31.486Z,95159.00
2023-05-02T01:36:31.495Z,95159.00
2023-05-02T01:37:31.542Z,95159.00
2023-05-02T01:38:31.596Z,95159.00
2023-05-02T01:39:31.670Z,95159.00
2023-05-02T01:40:31.687Z,95159.00
2023-05-02T01:41:31.716Z,95161.00
2023-05-02T01:42:31.799Z,95157.00
2023-05-02T01:43:31.827Z,95161.00
2023-05-02T01:44:31.873Z,95161.00
2023-05-02T01:45:31.924Z,95161.00
2023-05-02T01:46:32.060Z,95161.00
2023-05-02T01:47:32.020Z,95161.00
2023-05-02T01:48:32.082Z,95161.00
2023-05-02T01:49:32.084Z,95163.00
2023-05-02T01:50:32.149Z,95161.00
2023-05-02T01:51:32.192Z,95161.00
2023-05-02T01:52:32.315Z,95161.00
2023-05-02T01:53:32.291Z,95163.00
2023-05-02T01:54:32.345Z,95163.00
2023-05-02T01:55:32.386Z,95167.00
2023-05-02T01:56:32.460Z,95165.00
2023-05-02T01:57:32.502Z,95165.00
2023-05-02T01:58:32.528Z,95167.00
2023-05-02T01:59:32.565Z,95167.00
2023-05-02T02:00:32.614Z,95167.00
2023-05-02T02:01:32.741Z,95167.00
2023-05-02T02:02:32.732Z,95165.00
2023-05-02T02:03:32.800Z,95167.00
2023-05-02T02:04:32.866Z,95165.00
2023-05-02T02:05:32.836Z,95167.00
2023-05-02T02:06:32.948Z,95167.00
2023-05-02T02:07:32.928Z,95169.00
2023-05-02T02:08:33.022Z,95169.00
2023-05-02T02:09:33.048Z,95169.00
2023-05-02T02:10:33.083Z,95169.00
2023-05-02T02:11:33.124Z,95171.00
2023-05-02T02:12:33.193Z,95171.00
2023-05-02T02:13:33.244Z,95167.00
2023-05-02T02:14:33.272Z,95167.00
2023-05-02T02:15:33.314Z,95167.00
2023-05-02T02:16:33.393Z,95163.00
2023-05-02T02:17:33.444Z,95165.00
2023-05-02T02:18:33.478Z,95163.00
2023-05-02T02:19:33.526Z,95167.00
2023-05-02T02:20:33.545Z,95165.00
2023-05-02T02:21:33.573Z,95167.00
2023-05-02T02:22:33.680Z,95165.00
2023-05-02T02:23:33.707Z,95167.00
2023-05-02T02:24:33.758Z,95165.00
2023-05-02T02:25:33.812Z,95165.00
2023-05-02T02:26:33.847Z,95167.00
2023-05-02T02:27:33.862Z,95167.00
2023-05-02T02:28:33.954Z,95167.00
2023-05-02T02:29:33.990Z,95171.00
2023-05-02T02:30:34.056Z,95169.00
2023-05-02T02:31:34.382Z,95169.00
2023-05-02T02:32:34.159Z,95171.00
2023-05-02T02:33:34.152Z,95171.00
2023-05-02T02:34:34.212Z,95169.00
2023-05-02T02:35:34.262Z,95169.00
2023-05-02T02:36:34.293Z,95172.00
2023-05-02T02:37:34.353Z,95171.00
2023-05-02T02:38:34.448Z,95171.00
2023-05-02T02:39:34.455Z,95171.00
2023-05-02T02:40:34.505Z,95172.00
2023-05-02T02:41:34.526Z,95172.00
2023-05-02T02:42:34.573Z,95172.00
2023-05-02T02:43:34.649Z,95172.00
2023-05-02T02:44:34.684Z,95174.00
2023-05-02T02:45:34.738Z,95174.00
2023-05-02T02:46:34.861Z,95172.00
2023-05-02T02:47:34.899Z,95176.00
2023-05-02T02:48:34.865Z,95174.00
2023-05-02T02:49:34.910Z,95176.00
2023-05-02T02:50:34.928Z,95180.00
2023-05-02T02:51:34.977Z,95178.00
2023-05-02T02:52:35.039Z,95178.00
2023-05-02T02:53:35.092Z,95180.00
2023-05-02T02:54:35.126Z,95178.00
2023-05-02T02:55:35.186Z,95178.00
2023-05-02T02:56:35.207Z,95180.00
2023-05-02T02:57:35.259Z,95178.00
2023-05-02T02:58:35.304Z,95180.00
2023-05-02T02:59:35.364Z,95180.00
2023-05-02T03:00:35.422Z,95180.00
2023-05-02T03:01:35.514Z,95182.00
2023-05-02T03:02:35.525Z,95184.00
2023-05-02T03:03:35.657Z,95182.00
2023-05-02T03:04:35.610Z,95182.00
2023-05-02T03:05:35.649Z,95182.00
2023-05-02T03:06:35.750Z,95182.00
2023-05-02T03:07:35.775Z,95182.00
2023-05-02T03:08:35.834Z,95182.00
2023-05-02T03:09:35.894Z,95182.00
2023-05-02T03:10:35.916Z,95184.00
2023-05-02T03:11:35.969Z,95182.00
2023-05-02T03:12:36.006Z,95184.00
2023-05-02T03:13:36.058Z,95184.00
2023-05-02T03:14:36.104Z,95184.00
2023-05-02T03:15:36.217Z,95182.00
2023-05-02T03:16:36.277Z,95184.00
2023-05-02T03:17:36.340Z,95184.00
2023-05-02T03:18:36.304Z,95184.00
2023-05-02T03:19:36.346Z,95184.00
2023-05-02T03:20:36.411Z,95186.00
2023-05-02T03:21:36.467Z,95184.00
2023-05-02T03:22:36.509Z,95186.00
2023-05-02T03:23:36.555Z,95186.00
2023-05-02T03:24:36.613Z,95194.00
2023-05-02T03:25:36.619Z,95186.00
2023-05-02T03:26:36.661Z,95194.00
2023-05-02T03:27:36.688Z,95194.00
2023-05-02T03:28:36.743Z,95194.00
2023-05-02T03:29:36.829Z,95194.00
2023-05-02T03:30:36.848Z,95194.00
2023-05-02T03:31:36.890Z,95196.00
2023-05-02T03:32:37.014Z,95198.00
2023-05-02T03:33:36.980Z,95198.00
2023-05-02T03:34:37.005Z,95200.00
2023-05-02T03:35:37.054Z,95198.00
2023-05-02T03:36:37.086Z,95200.00
2023-05-02T03:37:37.144Z,95202.00
2023-05-02T03:38:37.185Z,95204.00
2023-05-02T03:39:37.262Z,95206.00
2023-05-02T03:40:37.275Z,95204.00
2023-05-02T03:41:37.338Z,95206.00
2023-05-02T03:42:37.336Z,95208.00
2023-05-02T03:43:37.397Z,95208.00
2023-05-02T03:44:37.455Z,95208.00
2023-05-02T03:45:37.516Z,95212.00
2023-05-02T03:46:37.601Z,95208.00
2023-05-02T03:47:37.697Z,95208.00
2023-05-02T03:48:37.620Z,95210.00
2023-05-02T03:49:37.704Z,95208.00
2023-05-02T03:50:37.709Z,95212.00
2023-05-02T03:51:37.747Z,95210.00
2023-05-02T03:52:37.811Z,95212.00
2023-05-02T03:53:37.852Z,95212.00
2023-05-02T03:54:37.906Z,95214.00
2023-05-02T03:55:37.933Z,95214.00
2023-05-02T03:56:37.956Z,95214.00
2023-05-02T03:57:37.992Z,95216.00
2023-05-02T03:58:38.017Z,95217.00
2023-05-02T03:59:38.060Z,95216.00
2023-05-02T04:00:38.118Z,95216.00
2023-05-02T04:01:38.187Z,95217.00
2023-05-02T04:02:38.432Z,95219.00
2023-05-02T04:03:38.286Z,95221.00
2023-05-02T04:04:39.032Z,95217.00
2023-05-02T04:05:38.261Z,95219.00
2023-05-02T04:06:38.435Z,95223.00
2023-05-02T04:07:38.323Z,95221.00
2023-05-02T04:08:38.384Z,95225.00
2023-05-02T04:09:38.365Z,95225.00
2023-05-02T04:10:38.396Z,95225.00
2023-05-02T04:11:38.420Z,95225.00
2023-05-02T04:12:38.443Z,95227.00
2023-05-02T04:13:38.523Z,95227.00
2023-05-02T04:14:38.488Z,95229.00
2023-05-02T04:15:38.518Z,95231.00
2023-05-02T04:16:38.644Z,95229.00
2023-05-02T04:17:38.681Z,95231.00
2023-05-02T04:18:38.560Z,95233.00
2023-05-02T04:19:38.566Z,95235.00
2023-05-02T04:20:38.603Z,95233.00
2023-05-02T04:21:38.598Z,95235.00
2023-05-02T04:22:38.610Z,95237.00
2023-05-02T04:23:38.620Z,95237.00
2023-05-02T04:24:38.633Z,95239.00
2023-05-02T04:25:38.624Z,95239.00
2023-05-02T04:26:38.634Z,95235.00
2023-05-02T04:27:38.671Z,95241.00
2023-05-02T04:28:38.641Z,95239.00
2023-05-02T04:29:38.668Z,95243.00
2023-05-02T04:30:38.677Z,95243.00
2023-05-02T04:31:38.698Z,95241.00
2023-05-02T04:32:38.741Z,95245.00
2023-05-02T04:33:38.677Z,95245.00
2023-05-02T04:34:38.686Z,95249.00
2023-05-02T04:35:38.691Z,95249.00
2023-05-02T04:36:38.690Z,95253.00
2023-05-02T04:37:38.684Z,95253.00
2023-05-02T04:38:38.696Z,95253.00
2023-05-02T04:39:38.730Z,95255.00
2023-05-02T04:40:38.676Z,95259.00
2023-05-02T04:41:38.698Z,95261.00
2023-05-02T04:42:38.695Z,95261.00
2023-05-02T04:43:38.683Z,95261.00
2023-05-02T04:44:38.721Z,95263.00
2023-05-02T04:45:38.725Z,95263.00
2023-05-02T04:46:38.798Z,95266.00
2023-05-02T04:47:38.732Z,95264.00
2023-05-02T04:48:38.698Z,95264.00
2023-05-02T04:49:38.693Z,95266.00
2023-05-02T04:50:38.702Z,95268.00
2023-05-02T04:51:38.716Z,95268.00
2023-05-02T04:52:38.688Z,95268.00
2023-05-02T04:53:38.699Z,95268.00
2023-05-02T04:54:38.722Z,95268.00
2023-05-02T04:55:38.692Z,95268.00
2023-05-02T04:56:38.665Z,95272.00
2023-05-02T04:57:38.696Z,95274.00
2023-05-02T04:58:38.686Z,95274.00
2023-05-02T04:59:38.720Z,95274.00
2023-05-02T05:00:38.705Z,95276.00
2023-05-02T05:01:45.827Z,95276.00
2023-05-02T05:02:38.737Z,95278.00
2023-05-02T05:03:38.781Z,95278.00
2023-05-02T05:04:38.697Z,95280.00
2023-05-02T05:05:38.728Z,95276.00
2023-05-02T05:06:38.677Z,95284.00
2023-05-02T05:07:38.651Z,95280.00
2023-05-02T05:08:38.639Z,95282.00
2023-05-02T05:09:38.654Z,95282.00
2023-05-02T05:10:38.616Z,95286.00
2023-05-02T05:11:38.619Z,95288.00
2023-05-02T05:12:38.595Z,95290.00
2023-05-02T05:13:38.604Z,95288.00
2023-05-02T05:14:38.587Z,95290.00
2023-05-02T05:15:38.575Z,95290.00
2023-05-02T05:16:38.654Z,95296.00
2023-05-02T05:17:38.595Z,95294.00
2023-05-02T05:18:38.561Z,95296.00
2023-05-02T05:19:38.595Z,95296.00
2023-05-02T05:20:38.583Z,95298.00
2023-05-02T05:21:38.521Z,95298.00
2023-05-02T05:22:38.553Z,95298.00
2023-05-02T05:23:38.554Z,95298.00
2023-05-02T05:24:38.522Z,95300.00
2023-05-02T05:25:38.560Z,95300.00
2023-05-02T05:26:38.517Z,95302.00
2023-05-02T05:27:38.542Z,95304.00
2023-05-02T05:28:38.540Z,95304.00
2023-05-02T05:29:38.571Z,95304.00
2023-05-02T05:30:38.498Z,95306.00
2023-05-02T05:31:38.513Z,95306.00
2023-05-02T05:32:38.529Z,95310.00
2023-05-02T05:33:38.570Z,95308.00
2023-05-02T05:34:38.457Z,95310.00
2023-05-02T05:35:38.476Z,95311.00
2023-05-02T05:36:38.489Z,95311.00
2023-05-02T05:37:38.457Z,95311.00
2023-05-02T05:38:38.404Z,95313.00
2023-05-02T05:39:38.593Z,95317.00
2023-05-02T05:40:38.418Z,95319.00
2023-05-02T05:41:38.434Z,95317.00
2023-05-02T05:42:38.373Z,95317.00
2023-05-02T05:43:38.552Z,95321.00
2023-05-02T05:44:38.405Z,95321.00
2023-05-02T05:45:38.364Z,95323.00
2023-05-02T05:46:45.968Z,95323.00
2023-05-02T05:47:38.401Z,95329.00
2023-05-02T05:48:38.327Z,95329.00
2023-05-02T05:49:39.030Z,95327.00
2023-05-02T05:50:38.315Z,95329.00
2023-05-02T05:51:38.329Z,95333.00
2023-05-02T05:52:38.299Z,95333.00
2023-05-02T05:53:38.384Z,95335.00
2023-05-02T05:54:38.293Z,95335.00
2023-05-02T05:55:39.112Z,95333.00
2023-05-02T05:56:38.357Z,95339.00
2023-05-02T05:57:38.396Z,95339.00
2023-05-02T05:58:38.469Z,95341.00
2023-05-02T05:59:38.417Z,95339.00
2023-05-02T06:00:38.429Z,95339.00
2023-05-02T06:01:38.430Z,95339.00
2023-05-02T06:02:38.457Z,95343.00
2023-05-02T06:03:38.511Z,95341.00
2023-05-02T06:04:38.457Z,95345.00
2023-05-02T06:05:38.409Z,95341.00
2023-05-02T06:06:38.437Z,95339.00
2023-05-02T06:07:38.412Z,95341.00
2023-05-02T06:08:38.399Z,95345.00
2023-05-02T06:09:38.377Z,95345.00
2023-05-02T06:10:38.393Z,95345.00
2023-05-02T06:11:38.413Z,95345.00
2023-05-02T06:12:38.387Z,95349.00
2023-05-02T06:13:38.405Z,95349.00
2023-05-02T06:14:38.441Z,95350.00
2023-05-02T06:15:38.583Z,95352.00
2023-05-02T06:16:38.639Z,95356.00
2023-05-02T06:17:38.551Z,95356.00
2023-05-02T06:18:38.574Z,95360.00
2023-05-02T06:19:38.658Z,95356.00
2023-05-02T06:20:38.704Z,95358.00
2023-05-02T06:21:38.725Z,95362.00
2023-05-02T06:22:38.806Z,95362.00
2023-05-02T06:23:38.847Z,95364.00
2023-05-02T06:24:38.899Z,95366.00
2023-05-02T06:25:38.941Z,95366.00
2023-05-02T06:26:39.003Z,95366.00
2023-05-02T06:27:39.035Z,95370.00
2023-05-02T06:28:39.085Z,95368.00
2023-05-02T06:29:39.157Z,95368.00
2023-05-02T06:30:39.243Z,95370.00
2023-05-02T06:31:39.317Z,95370.00
2023-05-02T06:32:39.396Z,95372.00
2023-05-02T06:33:39.419Z,95370.00
2023-05-02T06:34:39.463Z,95376.00
2023-05-02T06:35:39.536Z,95376.00
2023-05-02T06:36:39.650Z,95374.00
2023-05-02T06:37:39.603Z,95378.00
2023-05-02T06:38:39.992Z,95380.00
2023-05-02T06:39:39.762Z,95378.00
2023-05-02T06:40:39.821Z,95382.00
2023-05-02T06:41:39.855Z,95382.00
2023-05-02T06:42:39.921Z,95384.00
2023-05-02T06:43:39.967Z,95386.00
2023-05-02T06:44:40.044Z,95386.00
2023-05-02T06:45:40.089Z,95390.00
2023-05-02T06:46:40.206Z,95388.00
2023-05-02T06:47:40.314Z,95384.00
2023-05-02T06:48:40.313Z,95384.00
2023-05-02T06:49:40.314Z,95388.00
2023-05-02T06:50:40.369Z,95386.00
2023-05-02T06:51:40.414Z,95384.00
2023-05-02T06:52:41.201Z,95388.00
2023-05-02T06:53:40.529Z,95390.00
2023-05-02T06:54:40.620Z,95388.00
2023-05-02T06:55:41.095Z,95390.00
2023-05-02T06:56:40.754Z,95392.00
2023-05-02T06:57:40.744Z,95390.00
2023-05-02T06:58:40.825Z,95394.00
2023-05-02T06:59:41.547Z,95394.00
2023-05-02T07:00:41.247Z,95396.00
2023-05-02T07:01:41.044Z,95397.00
2023-05-02T07:02:41.084Z,95396.00
2023-05-02T07:03:41.160Z,95401.00
2023-05-02T07:04:41.398Z,95401.00
2023-05-02T07:05:41.589Z,95401.00
2023-05-02T07:06:41.320Z,95399.00
2023-05-02T07:07:41.318Z,95405.00
2023-05-02T07:08:41.394Z,95403.00
2023-05-02T07:09:41.449Z,95401.00
2023-05-02T07:10:41.620Z,95403.00
2023-05-02T07:11:41.523Z,95401.00
2023-05-02T07:12:41.643Z,95401.00
2023-05-02T07:13:41.795Z,95401.00
2023-05-02T07:14:42.616Z,95403.00
2023-05-02T07:15:41.751Z,95401.00
2023-05-02T07:16:41.848Z,95403.00
2023-05-02T07:17:41.891Z,95405.00
2023-05-02T07:18:41.924Z,95405.00
2023-05-02T07:19:44.615Z,95405.00
2023-05-02T07:20:41.957Z,95403.00
2023-05-02T07:21:41.912Z,95405.00
2023-05-02T07:22:41.930Z,95407.00
2023-05-02T07:23:41.962Z,95407.00
2023-05-02T07:24:41.964Z,95409.00
2023-05-02T07:25:41.908Z,95407.00
2023-05-02T07:26:41.952Z,95407.00
2023-05-02T07:27:41.952Z,95407.00
2023-05-02T07:28:41.899Z,95407.00
2023-05-02T07:29:41.864Z,95411.00
2023-05-02T07:30:42.156Z,95409.00
2023-05-02T07:31:41.981Z,95411.00
2023-05-02T07:32:41.962Z,95411.00
2023-05-02T07:33:41.839Z,95411.00
2023-05-02T07:34:41.814Z,95409.00
2023-05-02T07:35:42.113Z,95409.00
2023-05-02T07:36:41.908Z,95411.00
2023-05-02T07:37:41.849Z,95413.00
2023-05-02T07:38:41.809Z,95415.00
2023-05-02T07:39:41.800Z,95417.00
2023-05-02T07:40:42.126Z,95417.00
2023-05-02T07:41:41.825Z,95415.00
2023-05-02T07:42:41.777Z,95415.00
2023-05-02T07:43:43.549Z,95415.00
2023-05-02T07:44:43.111Z,95413.00
2023-05-02T07:45:43.260Z,95413.00
2023-05-02T07:46:42.016Z,95413.00
2023-05-02T07:47:42.074Z,95415.00
2023-05-02T07:48:41.999Z,95417.00
2023-05-02T07:49:42.055Z,95415.00
2023-05-02T07:50:42.135Z,95419.00
2023-05-02T07:51:42.120Z,95419.00
2023-05-02T07:52:42.153Z,95419.00
2023-05-02T07:53:42.208Z,95417.00
2023-05-02T07:54:42.268Z,95419.00
2023-05-02T07:55:42.609Z,95419.00
2023-05-02T07:56:42.292Z,95421.00
2023-05-02T07:57:42.344Z,95421.00
2023-05-02T07:58:42.452Z,95419.00
2023-05-02T07:59:42.452Z,95423.00
2023-05-02T08:00:42.520Z,95423.00
2023-05-02T08:01:42.570Z,95423.00
2023-05-02T08:02:42.723Z,95423.00
2023-05-02T08:03:42.790Z,95427.00
2023-05-02T08:04:42.734Z,95425.00
2023-05-02T08:05:42.761Z,95431.00
2023-05-02T08:06:42.787Z,95431.00
2023-05-02T08:07:42.894Z,95433.00
2023-05-02T08:08:42.890Z,95433.00
2023-05-02T08:09:42.965Z,95433.00
2023-05-02T08:10:43.007Z,95433.00
2023-05-02T08:11:43.015Z,95437.00
2023-05-02T08:12:43.084Z,95435.00
2023-05-02T08:13:43.111Z,95433.00
2023-05-02T08:14:43.232Z,95433.00
2023-05-02T08:15:43.328Z,95435.00
2023-05-02T08:16:44.826Z,95437.00
2023-05-02T08:17:43.569Z,95441.00
2023-05-02T08:18:43.306Z,95443.00
2023-05-02T08:19:43.301Z,95441.00
2023-05-02T08:20:43.249Z,95443.00
2023-05-02T08:21:43.241Z,95452.00
2023-05-02T08:22:43.226Z,95452.00
2023-05-02T08:23:43.255Z,95450.00
2023-05-02T08:24:43.231Z,95443.00
2023-05-02T08:25:43.369Z,95450.00
2023-05-02T08:26:43.296Z,95443.00
2023-05-02T08:27:43.302Z,95443.00
2023-05-02T08:28:43.379Z,95443.00
2023-05-02T08:29:43.520Z,95452.00
2023-05-02T08:30:43.177Z,95443.00
2023-05-02T08:31:43.445Z,95450.00
2023-05-02T08:32:43.265Z,95450.00
2023-05-02T08:33:43.281Z,95450.00
2023-05-02T08:34:43.191Z,95450.00
2023-05-02T08:35:43.678Z,95454.00
2023-05-02T08:36:43.136Z,95452.00
2023-05-02T08:37:43.156Z,95452.00
2023-05-02T08:38:43.123Z,95452.00
2023-05-02T08:39:43.141Z,95450.00
2023-05-02T08:40:43.494Z,95452.00
2023-05-02T08:41:43.152Z,95454.00
2023-05-02T08:42:43.087Z,95452.00
2023-05-02T08:43:43.121Z,95454.00
2023-05-02T08:44:43.117Z,95456.00
2023-05-02T08:45:43.111Z,95460.00
2023-05-02T08:46:43.143Z,95460.00
2023-05-02T08:47:43.155Z,95462.00
2023-05-02T08:48:43.091Z,95464.00
2023-05-02T08:49:43.072Z,95468.00
2023-05-02T08:50:43.043Z,95472.00
2023-05-02T08:51:43.050Z,95472.00
2023-05-02T08:52:43.070Z,95472.00
2023-05-02T08:53:43.080Z,95472.00
2023-05-02T08:54:43.185Z,95470.00
2023-05-02T08:55:43.598Z,95472.00
2023-05-02T08:56:43.223Z,95466.00
2023-05-02T08:57:43.011Z,95468.00
2023-05-02T08:58:43.149Z,95466.00
2023-05-02T08:59:43.120Z,95470.00
2023-05-02T09:00:43.314Z,95468.00
2023-05-02T09:01:43.399Z,95468.00
2023-05-02T09:02:43.130Z,95470.00
2023-05-02T09:03:42.925Z,95472.00
2023-05-02T09:04:43.166Z,95470.00
2023-05-02T09:05:42.946Z,95470.00
2023-05-02T09:06:42.937Z,95474.00
2023-05-02T09:07:42.924Z,95474.00
2023-05-02T09:08:42.941Z,95474.00
2023-05-02T09:09:42.926Z,95472.00
2023-05-02T09:10:42.976Z,95476.00
2023-05-02T09:11:43.164Z,95476.00
2023-05-02T09:12:42.886Z,95476.00
2023-05-02T09:13:42.884Z,95476.00
2023-05-02T09:14:42.885Z,95474.00
2023-05-02T09:15:42.885Z,95472.00
2023-05-02T09:16:43.389Z,95474.00
2023-05-02T09:17:42.905Z,95476.00
2023-05-02T09:18:42.877Z,95472.00
2023-05-02T09:19:42.862Z,95472.00
2023-05-02T09:20:42.850Z,95474.00
2023-05-02T09:21:42.831Z,95476.00
2023-05-02T09:22:42.848Z,95476.00
2023-05-02T09:23:42.833Z,95476.00
2023-05-02T09:24:42.829Z,95476.00
2023-05-02T09:25:42.869Z,95478.00
2023-05-02T09:26:42.926Z,95480.00
2023-05-02T09:27:42.977Z,95480.00
2023-05-02T09:28:42.985Z,95480.00
2023-05-02T09:29:43.044Z,95480.00
2023-05-02T09:30:43.158Z,95484.00
2023-05-02T09:31:55.456Z,95482.00
2023-05-02T09:32:44.183Z,95480.00
2023-05-02T09:33:43.111Z,95480.00
2023-05-02T09:34:43.079Z,95480.00
2023-05-02T09:35:43.086Z,95480.00
2023-05-02T09:36:43.112Z,95476.00
2023-05-02T09:37:43.063Z,95476.00
2023-05-02T09:38:43.130Z,95478.00
2023-05-02T09:39:43.076Z,95476.00
2023-05-02T09:40:43.073Z,95480.00
2023-05-02T09:41:43.082Z,95482.00
2023-05-02T09:42:43.033Z,95482.00
2023-05-02T09:43:43.034Z,95482.00
2023-05-02T09:44:43.088Z,95480.00
2023-05-02T09:45:43.220Z,95482.00
2023-05-02T09:46:43.335Z,95482.00
2023-05-02T09:47:43.753Z,95484.00
2023-05-02T09:48:43.293Z,95486.00
2023-05-02T09:49:43.352Z,95486.00
2023-05-02T09:50:43.360Z,95484.00
2023-05-02T09:51:43.416Z,95482.00
2023-05-02T09:52:43.424Z,95482.00
2023-05-02T09:53:43.466Z,95484.00
2023-05-02T09:54:43.440Z,95482.00
2023-05-02T09:55:43.480Z,95484.00
2023-05-02T09:56:43.686Z,95486.00
2023-05-02T09:57:43.482Z,95482.00
2023-05-02T09:58:43.487Z,95488.00
2023-05-02T09:59:43.508Z,95484.00
2023-05-02T10:00:43.629Z,95488.00
2023-05-02T10:01:43.619Z,95488.00
2023-05-02T10:02:43.565Z,95484.00
2023-05-02T10:03:43.756Z,95486.00
2023-05-02T10:04:43.649Z,95488.00
2023-05-02T10:05:43.598Z,95484.00
2023-05-02T10:06:43.767Z,95484.00
2023-05-02T10:07:43.612Z,95484.00
2023-05-02T10:08:43.662Z,95484.00
2023-05-02T10:09:43.703Z,95484.00
2023-05-02T10:10:43.709Z,95484.00
2023-05-02T10:11:43.695Z,95488.00
2023-05-02T10:12:43.689Z,95486.00
2023-05-02T10:13:43.682Z,95486.00
2023-05-02T10:14:43.722Z,95488.00
2023-05-02T10:15:43.781Z,95489.00
2023-05-02T10:16:43.709Z,95488.00
2023-05-02T10:17:43.788Z,95488.00
2023-05-02T10:18:43.732Z,95488.00
2023-05-02T10:19:43.747Z,95488.00
2023-05-02T10:20:43.738Z,95488.00
2023-05-02T10:21:44.204Z,95488.00
2023-05-02T10:22:43.724Z,95488.00
2023-05-02T10:23:43.727Z,95484.00
2023-05-02T10:24:43.757Z,95486.00
2023-05-02T10:25:43.740Z,95484.00
2023-05-02T10:26:44.203Z,95480.00
2023-05-02T10:27:43.671Z,95482.00
2023-05-02T10:28:43.702Z,95478.00
2023-05-02T10:29:43.702Z,95478.00
2023-05-02T10:30:43.720Z,95478.00
2023-05-02T10:31:44.868Z,95474.00
2023-05-02T10:32:43.744Z,95474.00
2023-05-02T10:33:43.662Z,95476.00
2023-05-02T10:34:43.635Z,95474.00
2023-05-02T10:35:43.703Z,95472.00
2023-05-02T10:36:43.658Z,95472.00
2023-05-02T10:37:43.653Z,95468.00
2023-05-02T10:38:43.637Z,95468.00
2023-05-02T10:39:43.675Z,95468.00
2023-05-02T10:40:43.684Z,95466.00
2023-05-02T10:41:43.679Z,95468.00
2023-05-02T10:42:43.649Z,95466.00
2023-05-02T10:43:43.656Z,95468.00
2023-05-02T10:44:44.750Z,95462.00
2023-05-02T10:45:43.682Z,95464.00
2023-05-02T10:46:43.782Z,95464.00
2023-05-02T10:47:43.795Z,95462.00
2023-05-02T10:48:43.652Z,95460.00
2023-05-02T10:49:43.625Z,95458.00
2023-05-02T10:50:43.639Z,95456.00
2023-05-02T10:51:44.645Z,95456.00
2023-05-02T10:52:43.718Z,95456.00
2023-05-02T10:53:43.716Z,95456.00
2023-05-02T10:54:43.734Z,95456.00
2023-05-02T10:55:43.772Z,95450.00
2023-05-02T10:56:43.782Z,95450.00
2023-05-02T10:57:44.074Z,95450.00
2023-05-02T10:58:43.871Z,95443.00
2023-05-02T10:59:43.890Z,95443.00
2023-05-02T11:00:43.952Z,95443.00
2023-05-02T11:01:44.428Z,95441.00
2023-05-02T11:02:44.109Z,95441.00
2023-05-02T11:03:44.092Z,95437.00
2023-05-02T11:04:44.177Z,95439.00
2023-05-02T11:05:44.151Z,95435.00
2023-05-02T11:06:44.354Z,95441.00
2023-05-02T11:07:44.259Z,95439.00
2023-05-02T11:08:44.340Z,95439.00
2023-05-02T11:09:44.378Z,95437.00
2023-05-02T11:10:44.405Z,95437.00
2023-05-02T11:11:44.458Z,95435.00
2023-05-02T11:12:44.521Z,95439.00
2023-05-02T11:13:44.567Z,95439.00
2023-05-02T11:14:44.610Z,95437.00
2023-05-02T11:15:44.664Z,95437.00
2023-05-02T11:16:44.726Z,95441.00
2023-05-02T11:17:44.750Z,95437.00
2023-05-02T11:18:44.821Z,95439.00
2023-05-02T11:19:44.860Z,95441.00
2023-05-02T11:20:44.890Z,95437.00
2023-05-02T11:21:44.956Z,95439.00
2023-05-02T11:22:45.007Z,95437.00
2023-05-02T11:23:45.045Z,95439.00
2023-05-02T11:24:45.179Z,95437.00
2023-05-02T11:25:45.170Z,95435.00
2023-05-02T11:26:45.727Z,95437.00
2023-05-02T11:27:45.386Z,95437.00
2023-05-02T11:28:45.390Z,95439.00
2023-05-02T11:29:45.426Z,95437.00
2023-05-02T11:30:45.474Z,95435.00
2023-05-02T11:31:45.993Z,95437.00
2023-05-02T11:32:45.684Z,95437.00
2023-05-02T11:33:46.039Z,95433.00
2023-05-02T11:34:45.722Z,95435.00
2023-05-02T11:35:45.754Z,95435.00
2023-05-02T11:36:46.201Z,95437.00
2023-05-02T11:37:45.815Z,95435.00
2023-05-02T11:38:45.900Z,95439.00
2023-05-02T11:39:45.936Z,95435.00
2023-05-02T11:40:46.012Z,95437.00
2023-05-02T11:41:46.089Z,95431.00
2023-05-02T11:42:46.111Z,95433.00
2023-05-02T11:43:46.156Z,95431.00
2023-05-02T11:44:46.149Z,95431.00